• Join FlightAware (Why Join?)
  • Login
  • US Flag 
02:57AM EDT


 

Airport Tracker/Info


-or-


 

Live Flight TrackerFlight Track Log ✈ JIA2353 ✈ 13-May-2013 ✈ KDCA - KPNS

Flight Track Log - Related Links

Times and Time Zones

All times are in EDT time to prevent confusion due to time zone crossing. See the JIA2353 flight status page for this flight to view local times or setup timezone preferences in your user account.

Time Position Orientation Groundspeed Altitude Reporting Facility
EDT Latitude Longitude Course Direction KTS MPH feet Rate Location/Type
02:29PM 38.8833 -77.0667 228° Southwest 165 190 2,100  Level Potomac TRACON
02:30PM 38.9333 -77.1167 322° Northwest 239 275 4,400 2,760 Climbing Potomac TRACON
02:31PM 38.6094 -77.2979 221° Southwest  Level FlightAware Approximate
02:32PM 38.5279 -77.3904 225° Southwest  Level FlightAware Approximate
02:32PM 38.9961 -77.2289 306° West 255 293 9,800  Level Washington Center
02:33PM 38.4510 -77.4892 225° Southwest  Level FlightAware Approximate
02:33PM 38.9803 -77.3086 256° West 239 275 12,300  Level Washington Center
02:34PM 38.3702 -77.5763 237° Southwest  Level FlightAware Approximate
02:34PM 38.9025 -77.3522 204° Southwest 219 252 14,800  Level Washington Center
02:35PM 38.3061 -77.6882 228° Southwest  Level FlightAware Approximate
02:35PM 38.8167 -77.3875 198° South 266 306 15,100  Level Washington Center
02:36PM 38.7306 -77.4253 199° South 301 346 17,000 1,920 Climbing Washington Center
02:37PM 38.6444 -77.4631 199° South 322 371 18,900 1,920 Climbing Washington Center
02:38PM 38.5583 -77.5006 199° South 330 380 20,900 1,740 Climbing Washington Center
02:39PM 38.4744 -77.5356 198° South 323 372 22,500 1,380 Climbing Washington Center
02:40PM 38.3903 -77.5783 202° Southwest 328 377 23,800 1,140 Climbing Washington Center
02:41PM 38.3183 -77.6453 216° Southwest 328 377 24,800 960 Climbing Washington Center
02:42PM 38.2442 -77.7147 216° Southwest 328 377 25,800 960 Climbing Washington Center
02:43PM 38.1678 -77.7811 214° Southwest 334 384 26,800 660 Climbing Washington Center
02:44PM 38.0917 -77.8503 216° Southwest 339 390 27,200 420 Climbing Washington Center
02:45PM 38.0175 -77.9111 213° Southwest 344 396 27,700 480 Climbing Washington Center
02:46PM 37.9367 -77.9825 215° Southwest 349 402 28,200 660 Climbing Washington Center
02:47PM 37.8539 -78.0586 216° Southwest 362 417 29,100 840 Climbing Washington Center
02:48PM 37.7711 -78.1244 212° Southwest 362 417 30,000 420 Climbing Washington Center
02:49PM 37.6817 -78.2053 216° Southwest 362 417 30,000  Level Washington Center
02:50PM 37.6011 -78.2733 214° Southwest 376 433 30,000  Level Washington Center
02:51PM 37.5097 -78.3486 213° Southwest 388 447 30,000  Level Washington Center
02:52PM 37.4181 -78.4264 214° Southwest 394 453 30,000 240 Level Washington Center
02:53PM 37.3267 -78.5039 214° Southwest 401 461 30,500 540 Climbing Washington Center
02:54PM 37.2244 -78.5861 213° Southwest 401 461 31,100 540 Climbing Washington Center
02:55PM 37.1350 -78.6608 214° Southwest 401 461 31,600 420 Climbing Washington Center
02:56PM 37.0431 -78.7406 215° Southwest 401 461 32,000 180 Climbing Washington Center
02:57PM 36.9514 -78.8172 214° Southwest 401 461 32,000  Level Washington Center
02:58PM 36.8658 -78.8967 217° Southwest 401 461 32,000  Level Washington Center
02:59PM 36.8111 -78.9906 234° Southwest 386 444 32,000  Level Washington Center
03:00PM 36.7494 -79.0967 234° Southwest 386 444 32,000  Level Washington Center
03:01PM 36.6881 -79.2025 234° Southwest 386 444 32,000  Level Washington Center
03:02PM 36.6264 -79.3083 234° Southwest 386 444 32,000  Level Washington Center
03:03PM 36.5625 -79.4139 233° Southwest 386 444 32,000  Level Washington Center
03:04PM 36.4939 -79.5294 234° Southwest 386 444 32,000  Level Washington Center
03:05PM 36.4300 -79.6392 234° Southwest 366 421 32,000  Level Atlanta Center
03:06PM 36.3611 -79.7564 234° Southwest 379 436 32,000  Level Atlanta Center
03:07PM 36.2978 -79.8603 233° Southwest 384 442 32,000  Level Atlanta Center
03:08PM 36.2328 -79.9692 234° Southwest 384 442 32,000  Level Atlanta Center
03:09PM 36.1694 -80.0728 233° Southwest 389 448 32,000  Level Atlanta Center
03:10PM 36.1061 -80.1811 234° Southwest 389 448 32,000  Level Atlanta Center
03:11PM 36.0486 -80.2764 233° Southwest 397 457 32,000  Level Atlanta Center
03:12PM 35.9831 -80.3819 233° Southwest 397 457 32,000  Level Atlanta Center
03:13PM 35.9156 -80.5056 236° Southwest 397 457 32,000  Level Atlanta Center
03:14PM 35.8539 -80.6108 234° Southwest 397 457 32,000  Level Atlanta Center
03:15PM 35.7839 -80.7186 231° Southwest 392 451 32,000  Level Atlanta Center
03:16PM 35.7258 -80.8131 233° Southwest 400 460 32,000  Level Atlanta Center
03:17PM 35.6597 -80.9181 232° Southwest 400 460 32,000  Level Atlanta Center
03:18PM 35.5956 -81.0225 233° Southwest 395 455 32,000  Level Atlanta Center
03:19PM 35.5214 -81.1400 232° Southwest 395 455 32,000  Level Atlanta Center
03:20PM 35.4531 -81.2522 233° Southwest 401 461 32,000  Level Atlanta Center
03:21PM 35.3867 -81.3614 233° Southwest 406 467 32,000  Level Atlanta Center
03:22PM 35.3222 -81.4703 234° Southwest 406 467 32,000  Level Atlanta Center
03:23PM 35.2556 -81.5767 233° Southwest 399 459 32,000  Level Atlanta Center
03:24PM 35.1906 -81.6778 232° Southwest 404 465 32,000  Level Atlanta Center
03:25PM 35.1258 -81.7864 234° Southwest 404 465 32,000  Level Atlanta Center
03:26PM 35.0569 -81.8922 232° Southwest 404 465 32,000  Level Atlanta Center
03:27PM 34.9900 -82.0031 234° Southwest 404 465 32,000  Level Atlanta Center
03:28PM 34.9228 -82.1136 233° Southwest 409 471 32,000  Level Atlanta Center
03:29PM 34.8475 -82.2342 233° Southwest 409 471 32,000  Level Atlanta Center
03:30PM 34.7803 -82.3469 234° Southwest 414 476 32,000  Level Atlanta Center
03:31PM 34.7108 -82.4619 234° Southwest 419 482 32,000  Level Atlanta Center
03:32PM 34.6411 -82.5744 233° Southwest 419 482 32,000  Level Atlanta Center
03:33PM 34.5717 -82.6892 234° Southwest 425 489 32,000  Level Atlanta Center
03:34PM 34.5058 -82.7911 232° Southwest 431 496 32,000  Level Atlanta Center
03:35PM 34.4381 -82.9053 234° Southwest 431 496 32,000  Level Atlanta Center
03:36PM 34.3661 -83.0222 233° Southwest 431 496 32,000  Level Atlanta Center
03:37PM 34.2981 -83.1336 234° Southwest 431 496 32,000  Level Atlanta Center
03:38PM 34.2278 -83.2422 232° Southwest 426 490 32,000  Level Atlanta Center
03:39PM 34.1575 -83.3558 233° Southwest 421 484 32,000  Level Atlanta Center
03:40PM 34.0811 -83.4769 233° Southwest 421 484 32,000  Level Atlanta Center
03:41PM 34.0125 -83.5853 233° Southwest 416 479 32,000  Level Atlanta Center
03:42PM 33.9419 -83.6958 232° Southwest 416 479 32,000  Level Atlanta Center
03:43PM 33.8733 -83.8061 233° Southwest 416 479 32,000  Level Atlanta Center
03:44PM 33.8047 -83.9114 232° Southwest 416 479 32,000  Level Atlanta Center
03:45PM 33.7358 -84.0214 233° Southwest 416 479 32,000  Level Atlanta Center
03:46PM 33.6669 -84.1286 232° Southwest 416 479 32,000  Level Atlanta Center
03:47PM 33.6064 -84.2258 233° Southwest 416 479 32,000  Level Atlanta Center
03:48PM 33.5350 -84.3328 231° Southwest 416 479 32,000  Level Atlanta Center
03:49PM 33.4681 -84.4397 233° Southwest 416 479 32,000  Level Atlanta Center
03:50PM 33.3967 -84.5464 231° Southwest 416 479 32,000  Level Atlanta Center
03:51PM 33.3231 -84.6603 232° Southwest 416 479 32,000  Level Atlanta Center
03:52PM 33.2578 -84.7642 233° Southwest 416 479 32,000  Level Atlanta Center
03:53PM 33.1883 -84.8728 233° Southwest 416 479 32,000  Level Atlanta Center
03:54PM 33.1186 -84.9739 231° Southwest 410 472 32,000  Level Atlanta Center
03:55PM 33.0531 -85.0772 233° Southwest 405 466 32,000  Level Atlanta Center
03:56PM 32.9875 -85.1731 231° Southwest 405 466 32,000  Level Atlanta Center
03:57PM 32.9178 -85.2761 231° Southwest 400 460 32,000  Level Atlanta Center
03:58PM 32.8497 -85.3789 232° Southwest 395 455 32,000  Level Atlanta Center
03:59PM 32.7839 -85.4817 233° Southwest 395 455 32,000  Level Atlanta Center
04:00PM 32.7181 -85.5819 232° Southwest 395 455 32,000  Level Atlanta Center
04:01PM 32.6500 -85.6844 232° Southwest 395 455 32,000  Level Atlanta Center
04:02PM 32.5797 -85.7867 231° Southwest 390 449 32,000  Level Atlanta Center
04:03PM 32.5156 -85.8839 232° Southwest 390 449 32,000  Level Atlanta Center
04:04PM 32.4450 -85.9906 232° Southwest 396 456 32,000  Level Atlanta Center
04:05PM 32.3744 -86.0900 230° Southwest 396 456 32,000  Level Atlanta Center
04:06PM 32.3039 -86.1892 230° Southwest 396 456 32,000  Level Atlanta Center
04:07PM 32.2525 -86.2664 232° Southwest 396 456 32,000  Level Atlanta Center
04:09PM 32.1431 -86.3289 188° South  Level FlightAware Approximate
04:09PM 32.0397 -86.3689 188° South 396 456 32,000  Level Atlanta Center
04:10PM 31.9286 -86.3978 192° South 403 464 31,200 -1,740 Descending Atlanta Center
04:12PM 31.7031 -86.4575 193° South 412 474 26,900 -2,220 Descending Jacksonville Center
04:13PM 31.5833 -86.4872 192° South 430 495 24,700 -1,500 Descending Jacksonville Center
04:14PM 31.4675 -86.5192 193° South 436 502 24,000 -960 Descending Jacksonville Center
04:15PM 31.3644 -86.5444 192° South 407 468 22,800 -1,560 Descending Jacksonville Center
04:16PM 31.2836 -86.5947 208° Southwest 383 441 20,900 -2,100 Descending Jacksonville Center
04:17PM 31.2394 -86.6806 239° Southwest 319 367 18,700 -2,400 Descending Jacksonville Center
04:18PM 31.1908 -86.7708 238° Southwest 324 373 16,200 -2,580 Descending Jacksonville Center
04:19PM 31.1322 -86.8436 227° Southwest 348 400 13,900 -2,520 Descending Jacksonville Center
04:20PM 31.0619 -86.8842 206° Southwest 365 420 12,300 -1,860 Descending Jacksonville Center
04:20PM 31.0367 -86.8953 201° Southwest 340 391 11,800 -660 Descending Jacksonville Center
04:21PM 30.9858 -86.9197 202° Southwest 331 381 11,700 -420 Descending Jacksonville Center
04:21PM 30.9539 -86.9353 203° Southwest 334 384 11,400 -1,560 Descending Jacksonville Center
04:22PM 30.8817 -86.9733 204° Southwest 293 337 9,700 -1,980 Descending Jacksonville Center
04:23PM 30.8136 -87.0164 209° Southwest 290 334 7,900 -960 Descending Jacksonville Center
04:24PM 30.8025 -87.1006 261° West 253 291 7,600 -480 Descending Jacksonville Center
04:25PM 30.7733 -87.1597 240° Southwest 273 314 7,100 -540 Descending Jacksonville Center
04:25PM 30.7586 -87.1639 194° South 248 285 7,100 -120 Level Jacksonville Center
04:26PM 30.6967 -87.1417 163° South 281 323 7,000 -120 Descending Jacksonville Center
04:26PM 30.6864 -87.1342 148° Southeast 212 244 7,000  Level Jacksonville Center
04:27PM 30.6267 -87.1097 161° South 278 320 7,000 60 Level Jacksonville Center
04:27PM 30.6125 -87.0994 148° Southeast 246 283 7,100  Climbing Jacksonville Center
04:28PM 30.5611 -87.0778 160° South 270 311 7,000 -120 Descending Jacksonville Center
04:28PM 30.5444 -87.0700 158° South 259 298 7,000  Level Jacksonville Center
04:29PM 30.4878 -87.0844 192° South 252 290 7,000  Level Jacksonville Center
04:30PM 30.4078 -87.1072 194° South 250 288 7,000  Level Jacksonville Center
04:31PM 30.3403 -87.1236 192° South 250 288 7,000  Level Jacksonville Center
04:32PM 30.2708 -87.1397 191° South 248 285 7,000  Level Jacksonville Center
04:33PM 30.2003 -87.1317 174° South 257 296 7,000  Level Jacksonville Center
04:34PM 30.1278 -87.1094 165° South 252 290 7,000  Level Jacksonville Center
04:35PM 30.0792 -87.0664 143° Southeast 235 270 7,000  Level Jacksonville Center